sensor_id;sensor_type;location;lat;lon;timestamp;temperature;humidity
4364;DHT22;15337;48.202;12.770;2022-09-09T00:02:08;13.00;99.90
4364;DHT22;15337;48.202;12.770;2022-09-09T00:04:39;13.00;99.90
4364;DHT22;15337;48.202;12.770;2022-09-09T00:07:13;12.90;99.90
4364;DHT22;15337;48.202;12.770;2022-09-09T00:09:46;12.90;99.90
4364;DHT22;15337;48.202;12.770;2022-09-09T00:12:16;12.90;99.90
4364;DHT22;15337;48.202;12.770;2022-09-09T00:14:52;12.90;99.90
4364;DHT22;15337;48.202;12.770;2022-09-09T00:17:32;12.80;99.90
4364;DHT22;15337;48.202;12.770;2022-09-09T00:20:04;12.80;99.90
4364;DHT22;15337;48.202;12.770;2022-09-09T00:22:32;12.70;99.90
4364;DHT22;15337;48.202;12.770;2022-09-09T00:25:08;12.70;99.90
4364;DHT22;15337;48.202;12.770;2022-09-09T00:27:40;12.70;99.90
4364;DHT22;15337;48.202;12.770;2022-09-09T00:30:15;12.70;99.90
4364;DHT22;15337;48.202;12.770;2022-09-09T00:32:45;12.70;99.90
4364;DHT22;15337;48.202;12.770;2022-09-09T00:35:18;12.60;99.90
4364;DHT22;15337;48.202;12.770;2022-09-09T00:37:47;12.60;99.90
4364;DHT22;15337;48.202;12.770;2022-09-09T00:40:22;12.60;99.90
4364;DHT22;15337;48.202;12.770;2022-09-09T00:42:52;12.50;99.90
4364;DHT22;15337;48.202;12.770;2022-09-09T00:45:41;12.50;99.90
4364;DHT22;15337;48.202;12.770;2022-09-09T00:48:13;12.50;99.90
4364;DHT22;15337;48.202;12.770;2022-09-09T00:50:49;12.40;99.90
4364;DHT22;15337;48.202;12.770;2022-09-09T00:53:30;12.40;99.90
4364;DHT22;15337;48.202;12.770;2022-09-09T00:56:07;12.40;99.90
4364;DHT22;15337;48.202;12.770;2022-09-09T00:58:36;12.30;99.90
4364;DHT22;15337;48.202;12.770;2022-09-09T01:01:05;12.30;99.90
4364;DHT22;15337;48.202;12.770;2022-09-09T01:03:35;12.30;99.90
4364;DHT22;15337;48.202;12.770;2022-09-09T01:06:13;12.30;99.90
4364;DHT22;15337;48.202;12.770;2022-09-09T01:09:07;12.30;99.90
4364;DHT22;15337;48.202;12.770;2022-09-09T01:11:49;12.30;99.90
4364;DHT22;15337;48.202;12.770;2022-09-09T01:14:27;12.20;99.90
4364;DHT22;15337;48.202;12.770;2022-09-09T01:17:00;12.20;99.90
4364;DHT22;15337;48.202;12.770;2022-09-09T01:19:41;12.20;99.90
4364;DHT22;15337;48.202;12.770;2022-09-09T01:22:20;12.20;99.90
4364;DHT22;15337;48.202;12.770;2022-09-09T01:25:19;12.10;99.90
4364;DHT22;15337;48.202;12.770;2022-09-09T01:27:49;12.10;99.90
4364;DHT22;15337;48.202;12.770;2022-09-09T01:30:17;12.10;99.90
4364;DHT22;15337;48.202;12.770;2022-09-09T01:32:46;12.10;99.90
4364;DHT22;15337;48.202;12.770;2022-09-09T01:35:22;12.10;99.90
4364;DHT22;15337;48.202;12.770;2022-09-09T01:37:50;12.10;99.90
4364;DHT22;15337;48.202;12.770;2022-09-09T01:40:17;12.00;99.90
4364;DHT22;15337;48.202;12.770;2022-09-09T01:42:44;12.00;99.90
4364;DHT22;15337;48.202;12.770;2022-09-09T01:45:12;12.00;99.90
4364;DHT22;15337;48.202;12.770;2022-09-09T01:47:39;12.00;99.90
4364;DHT22;15337;48.202;12.770;2022-09-09T01:50:08;12.00;99.90
4364;DHT22;15337;48.202;12.770;2022-09-09T01:52:37;12.00;99.90
4364;DHT22;15337;48.202;12.770;2022-09-09T01:55:05;12.00;99.90
4364;DHT22;15337;48.202;12.770;2022-09-09T01:57:39;12.00;99.90
4364;DHT22;15337;48.202;12.770;2022-09-09T02:00:10;12.00;99.90
4364;DHT22;15337;48.202;12.770;2022-09-09T02:02:44;12.10;99.90
4364;DHT22;15337;48.202;12.770;2022-09-09T02:05:21;12.10;99.90
4364;DHT22;15337;48.202;12.770;2022-09-09T02:07:59;12.10;99.90
4364;DHT22;15337;48.202;12.770;2022-09-09T02:10:32;12.10;99.90
4364;DHT22;15337;48.202;12.770;2022-09-09T02:13:03;12.10;99.90
4364;DHT22;15337;48.202;12.770;2022-09-09T02:15:35;12.10;99.90
4364;DHT22;15337;48.202;12.770;2022-09-09T02:18:07;12.20;99.90
4364;DHT22;15337;48.202;12.770;2022-09-09T02:20:37;12.20;99.90
4364;DHT22;15337;48.202;12.770;2022-09-09T02:23:05;12.20;99.90
4364;DHT22;15337;48.202;12.770;2022-09-09T02:25:36;12.20;99.90
4364;DHT22;15337;48.202;12.770;2022-09-09T02:28:05;12.30;99.90
4364;DHT22;15337;48.202;12.770;2022-09-09T02:30:34;12.30;99.90
4364;DHT22;15337;48.202;12.770;2022-09-09T02:33:03;12.30;99.90
4364;DHT22;15337;48.202;12.770;2022-09-09T02:35:34;12.30;99.90
4364;DHT22;15337;48.202;12.770;2022-09-09T02:38:08;12.30;99.90
4364;DHT22;15337;48.202;12.770;2022-09-09T02:40:35;12.30;99.90
4364;DHT22;15337;48.202;12.770;2022-09-09T02:43:02;12.30;99.90
4364;DHT22;15337;48.202;12.770;2022-09-09T02:45:42;12.30;99.90
4364;DHT22;15337;48.202;12.770;2022-09-09T02:48:15;12.30;99.90
4364;DHT22;15337;48.202;12.770;2022-09-09T02:50:52;12.40;99.90
4364;DHT22;15337;48.202;12.770;2022-09-09T02:53:24;12.40;99.90
4364;DHT22;15337;48.202;12.770;2022-09-09T02:55:59;12.40;99.90
4364;DHT22;15337;48.202;12.770;2022-09-09T02:58:28;12.40;99.90
4364;DHT22;15337;48.202;12.770;2022-09-09T03:00:55;12.40;99.90
4364;DHT22;15337;48.202;12.770;2022-09-09T03:03:23;12.40;99.90
4364;DHT22;15337;48.202;12.770;2022-09-09T03:05:52;12.40;99.90
4364;DHT22;15337;48.202;12.770;2022-09-09T03:08:19;12.50;99.90
4364;DHT22;15337;48.202;12.770;2022-09-09T03:10:45;12.50;99.90
4364;DHT22;15337;48.202;12.770;2022-09-09T03:13:13;12.40;99.90
4364;DHT22;15337;48.202;12.770;2022-09-09T03:15:40;12.50;99.90
4364;DHT22;15337;48.202;12.770;2022-09-09T03:18:08;12.50;99.90
4364;DHT22;15337;48.202;12.770;2022-09-09T03:20:35;12.50;99.90
4364;DHT22;15337;48.202;12.770;2022-09-09T03:23:04;12.50;99.90
4364;DHT22;15337;48.202;12.770;2022-09-09T03:25:31;12.60;99.90
4364;DHT22;15337;48.202;12.770;2022-09-09T03:27:59;12.60;99.90
4364;DHT22;15337;48.202;12.770;2022-09-09T03:30:27;12.60;99.90
4364;DHT22;15337;48.202;12.770;2022-09-09T03:32:54;12.60;99.90
4364;DHT22;15337;48.202;12.770;2022-09-09T03:35:22;12.60;99.90
4364;DHT22;15337;48.202;12.770;2022-09-09T03:37:49;12.60;99.90
4364;DHT22;15337;48.202;12.770;2022-09-09T03:40:17;12.70;99.90
4364;DHT22;15337;48.202;12.770;2022-09-09T03:42:45;12.70;99.90
4364;DHT22;15337;48.202;12.770;2022-09-09T03:45:13;12.70;99.90
4364;DHT22;15337;48.202;12.770;2022-09-09T03:47:40;12.60;99.90
4364;DHT22;15337;48.202;12.770;2022-09-09T03:50:08;12.60;99.90
4364;DHT22;15337;48.202;12.770;2022-09-09T03:52:37;12.70;99.90
4364;DHT22;15337;48.202;12.770;2022-09-09T03:55:05;12.70;99.90
4364;DHT22;15337;48.202;12.770;2022-09-09T03:57:34;12.70;99.90
4364;DHT22;15337;48.202;12.770;2022-09-09T04:00:02;12.70;99.90
4364;DHT22;15337;48.202;12.770;2022-09-09T04:02:29;12.70;99.90
4364;DHT22;15337;48.202;12.770;2022-09-09T04:04:56;12.70;99.90
4364;DHT22;15337;48.202;12.770;2022-09-09T04:07:23;12.70;99.90
4364;DHT22;15337;48.202;12.770;2022-09-09T04:09:49;12.70;99.90
4364;DHT22;15337;48.202;12.770;2022-09-09T04:12:16;12.80;99.90
4364;DHT22;15337;48.202;12.770;2022-09-09T04:14:45;12.80;99.90
4364;DHT22;15337;48.202;12.770;2022-09-09T04:17:11;12.80;99.90
4364;DHT22;15337;48.202;12.770;2022-09-09T04:19:38;12.80;99.90
4364;DHT22;15337;48.202;12.770;2022-09-09T04:22:05;12.80;99.90
4364;DHT22;15337;48.202;12.770;2022-09-09T04:24:32;12.80;99.90
4364;DHT22;15337;48.202;12.770;2022-09-09T04:26:59;12.90;99.90
4364;DHT22;15337;48.202;12.770;2022-09-09T04:29:26;12.90;99.90
4364;DHT22;15337;48.202;12.770;2022-09-09T04:31:54;12.90;99.90
4364;DHT22;15337;48.202;12.770;2022-09-09T04:34:21;12.90;99.90
4364;DHT22;15337;48.202;12.770;2022-09-09T04:36:47;12.90;99.90
4364;DHT22;15337;48.202;12.770;2022-09-09T04:39:14;12.90;99.90
4364;DHT22;15337;48.202;12.770;2022-09-09T04:41:41;13.00;99.90
4364;DHT22;15337;48.202;12.770;2022-09-09T04:44:08;13.00;99.90
4364;DHT22;15337;48.202;12.770;2022-09-09T04:46:35;13.00;99.90
4364;DHT22;15337;48.202;12.770;2022-09-09T04:49:03;13.00;99.90
4364;DHT22;15337;48.202;12.770;2022-09-09T04:51:30;13.00;99.90
4364;DHT22;15337;48.202;12.770;2022-09-09T04:53:58;13.00;99.90
4364;DHT22;15337;48.202;12.770;2022-09-09T04:56:24;13.00;99.90
4364;DHT22;15337;48.202;12.770;2022-09-09T04:58:53;13.10;99.90
4364;DHT22;15337;48.202;12.770;2022-09-09T05:01:22;13.10;99.90
4364;DHT22;15337;48.202;12.770;2022-09-09T05:03:49;13.10;99.90
4364;DHT22;15337;48.202;12.770;2022-09-09T05:06:20;13.10;99.90
4364;DHT22;15337;48.202;12.770;2022-09-09T05:08:47;13.10;99.90
4364;DHT22;15337;48.202;12.770;2022-09-09T05:11:20;13.10;99.90
4364;DHT22;15337;48.202;12.770;2022-09-09T05:13:49;13.20;99.90
4364;DHT22;15337;48.202;12.770;2022-09-09T05:16:17;13.20;99.90
4364;DHT22;15337;48.202;12.770;2022-09-09T05:18:44;13.20;99.90
4364;DHT22;15337;48.202;12.770;2022-09-09T05:21:12;13.30;99.90
4364;DHT22;15337;48.202;12.770;2022-09-09T05:23:41;13.30;99.90
4364;DHT22;15337;48.202;12.770;2022-09-09T05:26:12;13.40;99.90
4364;DHT22;15337;48.202;12.770;2022-09-09T05:28:39;13.30;99.90
4364;DHT22;15337;48.202;12.770;2022-09-09T05:31:08;13.30;99.90
4364;DHT22;15337;48.202;12.770;2022-09-09T05:33:37;13.30;99.90
4364;DHT22;15337;48.202;12.770;2022-09-09T05:36:07;13.40;99.90
4364;DHT22;15337;48.202;12.770;2022-09-09T05:38:36;13.40;99.90
4364;DHT22;15337;48.202;12.770;2022-09-09T05:41:05;13.40;99.90
4364;DHT22;15337;48.202;12.770;2022-09-09T05:43:32;13.40;99.90
4364;DHT22;15337;48.202;12.770;2022-09-09T05:46:03;13.40;99.90
4364;DHT22;15337;48.202;12.770;2022-09-09T05:48:32;13.50;99.90
4364;DHT22;15337;48.202;12.770;2022-09-09T05:51:00;13.50;99.90
4364;DHT22;15337;48.202;12.770;2022-09-09T05:53:27;13.50;99.90
4364;DHT22;15337;48.202;12.770;2022-09-09T05:56:01;13.50;99.90
4364;DHT22;15337;48.202;12.770;2022-09-09T05:58:31;13.60;99.90
4364;DHT22;15337;48.202;12.770;2022-09-09T06:01:03;13.60;99.90
4364;DHT22;15337;48.202;12.770;2022-09-09T06:03:30;13.60;99.90
4364;DHT22;15337;48.202;12.770;2022-09-09T06:05:58;13.60;99.90
4364;DHT22;15337;48.202;12.770;2022-09-09T06:08:25;13.70;99.90
4364;DHT22;15337;48.202;12.770;2022-09-09T06:10:52;13.70;99.90
4364;DHT22;15337;48.202;12.770;2022-09-09T06:13:19;13.70;99.90
4364;DHT22;15337;48.202;12.770;2022-09-09T06:15:51;13.70;99.90
4364;DHT22;15337;48.202;12.770;2022-09-09T06:18:18;13.80;99.90
4364;DHT22;15337;48.202;12.770;2022-09-09T06:20:54;13.90;99.90
4364;DHT22;15337;48.202;12.770;2022-09-09T06:23:21;13.90;99.90
4364;DHT22;15337;48.202;12.770;2022-09-09T06:25:48;14.00;99.90
4364;DHT22;15337;48.202;12.770;2022-09-09T06:28:16;14.10;99.90
4364;DHT22;15337;48.202;12.770;2022-09-09T06:30:43;14.10;99.90
4364;DHT22;15337;48.202;12.770;2022-09-09T06:33:12;14.20;99.90
4364;DHT22;15337;48.202;12.770;2022-09-09T06:35:38;14.20;99.90
4364;DHT22;15337;48.202;12.770;2022-09-09T06:38:05;14.30;99.90
4364;DHT22;15337;48.202;12.770;2022-09-09T06:40:34;14.30;99.90
4364;DHT22;15337;48.202;12.770;2022-09-09T06:43:00;14.40;99.90
4364;DHT22;15337;48.202;12.770;2022-09-09T06:45:28;14.40;99.90
4364;DHT22;15337;48.202;12.770;2022-09-09T06:47:55;14.50;99.90
4364;DHT22;15337;48.202;12.770;2022-09-09T06:50:24;14.50;99.90
4364;DHT22;15337;48.202;12.770;2022-09-09T06:52:51;14.50;99.90
4364;DHT22;15337;48.202;12.770;2022-09-09T06:55:19;14.50;99.90
4364;DHT22;15337;48.202;12.770;2022-09-09T06:57:46;14.60;99.90
4364;DHT22;15337;48.202;12.770;2022-09-09T07:00:14;14.60;99.90
4364;DHT22;15337;48.202;12.770;2022-09-09T07:02:41;14.60;99.90
4364;DHT22;15337;48.202;12.770;2022-09-09T07:05:08;14.60;99.90
4364;DHT22;15337;48.202;12.770;2022-09-09T07:07:37;14.60;99.90
4364;DHT22;15337;48.202;12.770;2022-09-09T07:10:04;14.70;99.90
4364;DHT22;15337;48.202;12.770;2022-09-09T07:12:31;14.70;99.90
4364;DHT22;15337;48.202;12.770;2022-09-09T07:14:58;14.70;99.90
4364;DHT22;15337;48.202;12.770;2022-09-09T07:17:25;14.70;99.90
4364;DHT22;15337;48.202;12.770;2022-09-09T07:19:53;14.80;99.90
4364;DHT22;15337;48.202;12.770;2022-09-09T07:22:21;14.80;99.90
4364;DHT22;15337;48.202;12.770;2022-09-09T07:24:49;14.80;99.90
4364;DHT22;15337;48.202;12.770;2022-09-09T07:27:16;14.80;99.90
4364;DHT22;15337;48.202;12.770;2022-09-09T07:29:43;14.80;99.90
4364;DHT22;15337;48.202;12.770;2022-09-09T07:32:10;14.90;99.90
4364;DHT22;15337;48.202;12.770;2022-09-09T07:34:37;14.90;99.90
4364;DHT22;15337;48.202;12.770;2022-09-09T07:37:04;14.90;99.90
4364;DHT22;15337;48.202;12.770;2022-09-09T07:39:31;14.90;99.90
4364;DHT22;15337;48.202;12.770;2022-09-09T07:41:59;15.00;99.90
4364;DHT22;15337;48.202;12.770;2022-09-09T07:44:26;15.10;99.90
4364;DHT22;15337;48.202;12.770;2022-09-09T07:46:53;15.10;99.90
4364;DHT22;15337;48.202;12.770;2022-09-09T07:49:20;15.20;99.90
4364;DHT22;15337;48.202;12.770;2022-09-09T07:51:48;15.20;99.90
4364;DHT22;15337;48.202;12.770;2022-09-09T07:54:17;15.30;99.90
4364;DHT22;15337;48.202;12.770;2022-09-09T07:56:45;15.40;99.90
4364;DHT22;15337;48.202;12.770;2022-09-09T07:59:14;15.50;99.90
4364;DHT22;15337;48.202;12.770;2022-09-09T08:01:42;15.60;99.90
4364;DHT22;15337;48.202;12.770;2022-09-09T08:04:11;15.70;99.90
4364;DHT22;15337;48.202;12.770;2022-09-09T08:06:42;15.70;99.90
4364;DHT22;15337;48.202;12.770;2022-09-09T08:09:10;15.80;99.90
4364;DHT22;15337;48.202;12.770;2022-09-09T08:11:37;15.80;99.90
4364;DHT22;15337;48.202;12.770;2022-09-09T08:14:05;15.80;99.90
4364;DHT22;15337;48.202;12.770;2022-09-09T08:16:36;15.90;99.90
4364;DHT22;15337;48.202;12.770;2022-09-09T08:19:04;16.00;99.90
4364;DHT22;15337;48.202;12.770;2022-09-09T08:21:33;16.00;99.90
4364;DHT22;15337;48.202;12.770;2022-09-09T08:24:03;16.00;99.90
4364;DHT22;15337;48.202;12.770;2022-09-09T08:26:32;16.10;99.90
4364;DHT22;15337;48.202;12.770;2022-09-09T08:29:01;16.10;99.90
4364;DHT22;15337;48.202;12.770;2022-09-09T08:31:30;16.20;99.90
4364;DHT22;15337;48.202;12.770;2022-09-09T08:34:00;16.20;99.90
4364;DHT22;15337;48.202;12.770;2022-09-09T08:36:31;16.30;99.90
4364;DHT22;15337;48.202;12.770;2022-09-09T08:38:59;16.30;99.90
4364;DHT22;15337;48.202;12.770;2022-09-09T08:41:51;16.40;99.90
4364;DHT22;15337;48.202;12.770;2022-09-09T08:44:26;16.50;99.90
4364;DHT22;15337;48.202;12.770;2022-09-09T08:47:03;16.50;99.90
4364;DHT22;15337;48.202;12.770;2022-09-09T08:49:57;16.60;99.90
4364;DHT22;15337;48.202;12.770;2022-09-09T08:52:30;16.60;99.90
4364;DHT22;15337;48.202;12.770;2022-09-09T08:55:03;16.70;99.90
4364;DHT22;15337;48.202;12.770;2022-09-09T08:57:32;16.80;99.90
4364;DHT22;15337;48.202;12.770;2022-09-09T09:00:00;16.80;99.90
4364;DHT22;15337;48.202;12.770;2022-09-09T09:02:32;16.90;99.90
4364;DHT22;15337;48.202;12.770;2022-09-09T09:05:14;17.00;99.90
4364;DHT22;15337;48.202;12.770;2022-09-09T09:07:54;17.00;99.90
4364;DHT22;15337;48.202;12.770;2022-09-09T09:10:36;17.10;99.90
4364;DHT22;15337;48.202;12.770;2022-09-09T09:13:10;17.10;99.90
4364;DHT22;15337;48.202;12.770;2022-09-09T09:15:41;17.10;99.90
4364;DHT22;15337;48.202;12.770;2022-09-09T09:18:10;17.10;99.90
4364;DHT22;15337;48.202;12.770;2022-09-09T09:20:48;17.10;99.90
4364;DHT22;15337;48.202;12.770;2022-09-09T09:23:22;17.20;99.90
4364;DHT22;15337;48.202;12.770;2022-09-09T09:25:50;17.20;99.90
4364;DHT22;15337;48.202;12.770;2022-09-09T09:28:22;17.30;99.90
4364;DHT22;15337;48.202;12.770;2022-09-09T09:30:54;17.40;99.90
4364;DHT22;15337;48.202;12.770;2022-09-09T09:33:26;17.50;99.90
4364;DHT22;15337;48.202;12.770;2022-09-09T09:35:56;17.60;99.90
4364;DHT22;15337;48.202;12.770;2022-09-09T09:38:26;17.60;99.90
4364;DHT22;15337;48.202;12.770;2022-09-09T09:40:54;17.70;99.90
4364;DHT22;15337;48.202;12.770;2022-09-09T09:43:26;17.70;99.90
4364;DHT22;15337;48.202;12.770;2022-09-09T09:45:54;17.70;99.90
4364;DHT22;15337;48.202;12.770;2022-09-09T09:48:21;17.70;99.90
4364;DHT22;15337;48.202;12.770;2022-09-09T09:50:50;17.70;99.90
4364;DHT22;15337;48.202;12.770;2022-09-09T09:53:21;17.80;99.90
4364;DHT22;15337;48.202;12.770;2022-09-09T09:55:54;17.80;99.90
4364;DHT22;15337;48.202;12.770;2022-09-09T09:58:21;17.80;99.90
4364;DHT22;15337;48.202;12.770;2022-09-09T10:00:49;17.80;99.90
4364;DHT22;15337;48.202;12.770;2022-09-09T10:03:22;17.80;99.90
4364;DHT22;15337;48.202;12.770;2022-09-09T10:05:50;17.80;99.90
4364;DHT22;15337;48.202;12.770;2022-09-09T10:08:19;17.80;99.90
4364;DHT22;15337;48.202;12.770;2022-09-09T10:11:07;17.70;99.90
4364;DHT22;15337;48.202;12.770;2022-09-09T10:13:47;17.70;99.90
4364;DHT22;15337;48.202;12.770;2022-09-09T10:16:27;17.70;99.90
4364;DHT22;15337;48.202;12.770;2022-09-09T10:19:00;17.80;99.90
4364;DHT22;15337;48.202;12.770;2022-09-09T10:24:58;17.90;99.90
4364;DHT22;15337;48.202;12.770;2022-09-09T10:27:33;17.90;99.90
4364;DHT22;15337;48.202;12.770;2022-09-09T10:30:12;17.90;99.90
4364;DHT22;15337;48.202;12.770;2022-09-09T10:32:46;17.90;99.90
4364;DHT22;15337;48.202;12.770;2022-09-09T10:35:29;17.90;99.90
4364;DHT22;15337;48.202;12.770;2022-09-09T10:38:17;17.90;99.90
4364;DHT22;15337;48.202;12.770;2022-09-09T10:41:01;17.90;99.90
4364;DHT22;15337;48.202;12.770;2022-09-09T10:43:39;18.00;99.90
4364;DHT22;15337;48.202;12.770;2022-09-09T10:46:13;18.00;99.90
4364;DHT22;15337;48.202;12.770;2022-09-09T10:48:55;18.00;99.90
4364;DHT22;15337;48.202;12.770;2022-09-09T10:51:33;18.00;99.90
4364;DHT22;15337;48.202;12.770;2022-09-09T10:54:27;18.00;99.90
4364;DHT22;15337;48.202;12.770;2022-09-09T10:56:59;18.10;99.90
4364;DHT22;15337;48.202;12.770;2022-09-09T10:59:30;18.10;99.90
4364;DHT22;15337;48.202;12.770;2022-09-09T11:02:02;18.10;99.90
4364;DHT22;15337;48.202;12.770;2022-09-09T11:04:35;18.20;99.90
4364;DHT22;15337;48.202;12.770;2022-09-09T11:07:08;18.30;99.90
4364;DHT22;15337;48.202;12.770;2022-09-09T11:09:40;18.30;99.90
4364;DHT22;15337;48.202;12.770;2022-09-09T11:12:12;18.40;99.90
4364;DHT22;15337;48.202;12.770;2022-09-09T11:14:44;18.40;99.90
4364;DHT22;15337;48.202;12.770;2022-09-09T11:17:15;18.40;99.90
4364;DHT22;15337;48.202;12.770;2022-09-09T11:19:44;18.50;99.90
4364;DHT22;15337;48.202;12.770;2022-09-09T11:22:18;18.40;99.90
4364;DHT22;15337;48.202;12.770;2022-09-09T11:24:50;18.40;99.90
4364;DHT22;15337;48.202;12.770;2022-09-09T11:27:23;18.40;99.90
4364;DHT22;15337;48.202;12.770;2022-09-09T11:33:29;18.50;99.90
4364;DHT22;15337;48.202;12.770;2022-09-09T11:36:13;18.50;99.90
4364;DHT22;15337;48.202;12.770;2022-09-09T11:38:46;18.50;99.90
4364;DHT22;15337;48.202;12.770;2022-09-09T11:41:14;18.50;99.90
4364;DHT22;15337;48.202;12.770;2022-09-09T11:43:44;18.60;99.90
4364;DHT22;15337;48.202;12.770;2022-09-09T11:46:13;18.60;99.90
4364;DHT22;15337;48.202;12.770;2022-09-09T11:48:43;18.70;99.90
4364;DHT22;15337;48.202;12.770;2022-09-09T11:51:24;18.70;99.90
4364;DHT22;15337;48.202;12.770;2022-09-09T11:53:55;18.80;99.90
4364;DHT22;15337;48.202;12.770;2022-09-09T11:56:28;18.80;99.90
4364;DHT22;15337;48.202;12.770;2022-09-09T11:59:02;18.90;99.90
4364;DHT22;15337;48.202;12.770;2022-09-09T12:01:40;18.90;99.90
4364;DHT22;15337;48.202;12.770;2022-09-09T12:04:28;18.90;99.90
4364;DHT22;15337;48.202;12.770;2022-09-09T12:06:59;18.90;99.90
4364;DHT22;15337;48.202;12.770;2022-09-09T12:09:43;18.90;99.90
4364;DHT22;15337;48.202;12.770;2022-09-09T12:12:29;19.00;99.90
4364;DHT22;15337;48.202;12.770;2022-09-09T12:15:02;19.00;99.90
4364;DHT22;15337;48.202;12.770;2022-09-09T12:17:31;19.10;99.90
4364;DHT22;15337;48.202;12.770;2022-09-09T12:20:08;19.00;99.90
4364;DHT22;15337;48.202;12.770;2022-09-09T12:22:47;19.10;99.90
4364;DHT22;15337;48.202;12.770;2022-09-09T12:25:23;19.10;99.90
4364;DHT22;15337;48.202;12.770;2022-09-09T12:28:02;19.10;99.90
4364;DHT22;15337;48.202;12.770;2022-09-09T12:30:35;19.00;99.90
4364;DHT22;15337;48.202;12.770;2022-09-09T12:33:10;19.00;99.90
4364;DHT22;15337;48.202;12.770;2022-09-09T12:35:38;19.00;99.90
4364;DHT22;15337;48.202;12.770;2022-09-09T12:38:12;19.00;99.90
4364;DHT22;15337;48.202;12.770;2022-09-09T12:40:40;18.90;99.90
4364;DHT22;15337;48.202;12.770;2022-09-09T12:43:17;18.90;99.90
4364;DHT22;15337;48.202;12.770;2022-09-09T12:45:47;18.90;99.90
4364;DHT22;15337;48.202;12.770;2022-09-09T12:48:17;18.90;99.90
4364;DHT22;15337;48.202;12.770;2022-09-09T12:50:47;18.90;99.90
4364;DHT22;15337;48.202;12.770;2022-09-09T12:53:21;18.90;99.90
4364;DHT22;15337;48.202;12.770;2022-09-09T12:55:51;18.90;99.90
4364;DHT22;15337;48.202;12.770;2022-09-09T12:58:19;18.90;99.90
4364;DHT22;15337;48.202;12.770;2022-09-09T13:00:51;19.00;99.90
4364;DHT22;15337;48.202;12.770;2022-09-09T13:03:19;19.00;99.90
4364;DHT22;15337;48.202;12.770;2022-09-09T13:05:47;19.00;99.90
4364;DHT22;15337;48.202;12.770;2022-09-09T13:08:15;19.00;99.90
4364;DHT22;15337;48.202;12.770;2022-09-09T13:10:48;19.00;99.90
4364;DHT22;15337;48.202;12.770;2022-09-09T13:13:21;19.00;99.90
4364;DHT22;15337;48.202;12.770;2022-09-09T13:15:52;19.00;99.90
4364;DHT22;15337;48.202;12.770;2022-09-09T13:18:23;19.00;99.90
4364;DHT22;15337;48.202;12.770;2022-09-09T13:20:51;19.00;99.90
4364;DHT22;15337;48.202;12.770;2022-09-09T13:23:20;19.00;99.90
4364;DHT22;15337;48.202;12.770;2022-09-09T13:25:55;19.00;99.90
4364;DHT22;15337;48.202;12.770;2022-09-09T13:28:25;19.00;99.90
4364;DHT22;15337;48.202;12.770;2022-09-09T13:31:00;19.00;99.90
4364;DHT22;15337;48.202;12.770;2022-09-09T13:33:34;19.00;99.90
4364;DHT22;15337;48.202;12.770;2022-09-09T13:36:04;19.00;99.90
4364;DHT22;15337;48.202;12.770;2022-09-09T13:38:35;19.00;99.90
4364;DHT22;15337;48.202;12.770;2022-09-09T13:41:04;19.00;99.90
4364;DHT22;15337;48.202;12.770;2022-09-09T13:43:36;19.00;99.90
4364;DHT22;15337;48.202;12.770;2022-09-09T13:46:24;18.90;99.90
4364;DHT22;15337;48.202;12.770;2022-09-09T13:48:55;19.00;99.90
4364;DHT22;15337;48.202;12.770;2022-09-09T13:51:30;19.00;99.90
4364;DHT22;15337;48.202;12.770;2022-09-09T13:53:58;19.00;99.90
4364;DHT22;15337;48.202;12.770;2022-09-09T13:56:26;19.00;99.90
4364;DHT22;15337;48.202;12.770;2022-09-09T13:58:53;19.10;99.90
4364;DHT22;15337;48.202;12.770;2022-09-09T14:01:21;19.20;99.90
4364;DHT22;15337;48.202;12.770;2022-09-09T14:03:48;19.20;99.90
4364;DHT22;15337;48.202;12.770;2022-09-09T14:06:16;19.20;99.90
4364;DHT22;15337;48.202;12.770;2022-09-09T14:08:44;19.30;99.90
4364;DHT22;15337;48.202;12.770;2022-09-09T14:11:13;19.30;99.90
4364;DHT22;15337;48.202;12.770;2022-09-09T14:13:40;19.20;99.90
4364;DHT22;15337;48.202;12.770;2022-09-09T14:16:07;19.30;99.90
4364;DHT22;15337;48.202;12.770;2022-09-09T14:18:36;19.30;99.90
4364;DHT22;15337;48.202;12.770;2022-09-09T14:21:04;19.40;99.90
4364;DHT22;15337;48.202;12.770;2022-09-09T14:23:31;19.50;99.90
4364;DHT22;15337;48.202;12.770;2022-09-09T14:25:58;19.70;99.90
4364;DHT22;15337;48.202;12.770;2022-09-09T14:28:25;20.10;99.90
4364;DHT22;15337;48.202;12.770;2022-09-09T14:30:52;20.20;99.90
4364;DHT22;15337;48.202;12.770;2022-09-09T14:33:19;20.40;99.90
4364;DHT22;15337;48.202;12.770;2022-09-09T14:35:47;20.60;99.90
4364;DHT22;15337;48.202;12.770;2022-09-09T14:38:14;21.00;99.90
4364;DHT22;15337;48.202;12.770;2022-09-09T14:40:41;21.20;99.90
4364;DHT22;15337;48.202;12.770;2022-09-09T14:43:11;21.30;99.90
4364;DHT22;15337;48.202;12.770;2022-09-09T14:45:38;21.60;99.90
4364;DHT22;15337;48.202;12.770;2022-09-09T14:48:05;21.60;99.90
4364;DHT22;15337;48.202;12.770;2022-09-09T14:50:32;21.50;99.90
4364;DHT22;15337;48.202;12.770;2022-09-09T14:53:01;21.30;99.90
4364;DHT22;15337;48.202;12.770;2022-09-09T14:55:28;21.40;99.90
4364;DHT22;15337;48.202;12.770;2022-09-09T14:57:55;21.50;99.90
4364;DHT22;15337;48.202;12.770;2022-09-09T15:00:22;21.50;99.90
4364;DHT22;15337;48.202;12.770;2022-09-09T15:02:52;21.50;99.90
4364;DHT22;15337;48.202;12.770;2022-09-09T15:05:19;21.50;99.90
4364;DHT22;15337;48.202;12.770;2022-09-09T15:07:46;21.40;99.90
4364;DHT22;15337;48.202;12.770;2022-09-09T15:10:15;21.30;99.90
4364;DHT22;15337;48.202;12.770;2022-09-09T15:12:42;21.10;99.90
4364;DHT22;15337;48.202;12.770;2022-09-09T15:15:09;21.00;99.90
4364;DHT22;15337;48.202;12.770;2022-09-09T15:17:38;20.90;99.90
4364;DHT22;15337;48.202;12.770;2022-09-09T15:20:06;20.80;99.90
4364;DHT22;15337;48.202;12.770;2022-09-09T15:22:33;20.70;99.90
4364;DHT22;15337;48.202;12.770;2022-09-09T15:25:02;20.70;99.90
4364;DHT22;15337;48.202;12.770;2022-09-09T15:27:30;20.70;99.90
4364;DHT22;15337;48.202;12.770;2022-09-09T15:29:57;20.60;99.90
4364;DHT22;15337;48.202;12.770;2022-09-09T15:32:26;20.50;99.90
4364;DHT22;15337;48.202;12.770;2022-09-09T15:34:53;20.40;99.90
4364;DHT22;15337;48.202;12.770;2022-09-09T15:37:20;20.30;99.90
4364;DHT22;15337;48.202;12.770;2022-09-09T15:39:47;20.30;99.90
4364;DHT22;15337;48.202;12.770;2022-09-09T15:42:14;20.20;99.90
4364;DHT22;15337;48.202;12.770;2022-09-09T15:44:42;20.10;99.90
4364;DHT22;15337;48.202;12.770;2022-09-09T15:47:10;20.10;99.90
4364;DHT22;15337;48.202;12.770;2022-09-09T15:49:38;20.10;99.90
4364;DHT22;15337;48.202;12.770;2022-09-09T15:52:05;20.00;99.90
4364;DHT22;15337;48.202;12.770;2022-09-09T15:54:34;20.00;99.90
4364;DHT22;15337;48.202;12.770;2022-09-09T15:57:03;19.90;99.90
4364;DHT22;15337;48.202;12.770;2022-09-09T15:59:31;19.90;99.90